sensor_id;sensor_type;location;lat;lon;timestamp;pressure;altitude;pressure_sealevel;temperature
34310;BMP280;61664;48.112;11.662;2023-02-28T00:01:31;95892.75;;;2.08
34310;BMP280;61664;48.112;11.662;2023-02-28T00:03:58;95893.13;;;2.10
34310;BMP280;61664;48.112;11.662;2023-02-28T00:06:26;95890.16;;;2.04
34310;BMP280;61664;48.112;11.662;2023-02-28T00:08:53;95874.75;;;1.92
34310;BMP280;61664;48.112;11.662;2023-02-28T00:11:20;95887.91;;;2.02
34310;BMP280;61664;48.112;11.662;2023-02-28T00:13:48;95881.88;;;2.02
34310;BMP280;61664;48.112;11.662;2023-02-28T00:16:21;95871.34;;;1.95
34310;BMP280;61664;48.112;11.662;2023-02-28T00:18:49;95872.09;;;1.95
34310;BMP280;61664;48.112;11.662;2023-02-28T00:21:17;95890.91;;;2.04
34310;BMP280;61664;48.112;11.662;2023-02-28T00:23:44;95887.16;;;2.02
34310;BMP280;61664;48.112;11.662;2023-02-28T00:26:11;95887.91;;;2.02
34310;BMP280;61664;48.112;11.662;2023-02-28T00:28:38;95875.47;;;1.96
34310;BMP280;61664;48.112;11.662;2023-02-28T00:31:05;95853.38;;;1.75
34310;BMP280;61664;48.112;11.662;2023-02-28T00:33:32;95877.38;;;1.95
34310;BMP280;61664;48.112;11.662;2023-02-28T00:36:09;95875.88;;;1.94
34310;BMP280;61664;48.112;11.662;2023-02-28T00:38:37;95871.38;;;1.91
34310;BMP280;61664;48.112;11.662;2023-02-28T00:41:04;95881.16;;;1.94
34310;BMP280;61664;48.112;11.662;2023-02-28T00:43:33;95872.47;;;1.90
34310;BMP280;61664;48.112;11.662;2023-02-28T00:46:01;95876.66;;;1.91
34310;BMP280;61664;48.112;11.662;2023-02-28T00:48:28;95872.16;;;1.85
34310;BMP280;61664;48.112;11.662;2023-02-28T00:50:55;95876.63;;;1.88
34310;BMP280;61664;48.112;11.662;2023-02-28T00:53:22;95882.31;;;1.86
34310;BMP280;61664;48.112;11.662;2023-02-28T00:55:50;95856.00;;;1.75
34310;BMP280;61664;48.112;11.662;2023-02-28T00:58:17;95865.06;;;1.74
34310;BMP280;61664;48.112;11.662;2023-02-28T01:00:44;95875.94;;;1.80
34310;BMP280;61664;48.112;11.662;2023-02-28T01:03:19;95876.69;;;1.77
34310;BMP280;61664;48.112;11.662;2023-02-28T01:05:47;95877.44;;;1.78
34310;BMP280;61664;48.112;11.662;2023-02-28T01:08:14;95877.84;;;1.76
34310;BMP280;61664;48.112;11.662;2023-02-28T01:10:42;95876.34;;;1.75
34310;BMP280;61664;48.112;11.662;2023-02-28T01:13:09;95873.69;;;1.75
34310;BMP280;61664;48.112;11.662;2023-02-28T01:15:45;95873.69;;;1.75
34310;BMP280;61664;48.112;11.662;2023-02-28T01:18:14;95873.69;;;1.75
34310;BMP280;61664;48.112;11.662;2023-02-28T01:20:41;95859.81;;;1.64
34310;BMP280;61664;48.112;11.662;2023-02-28T01:23:09;95850.03;;;1.64
34310;BMP280;61664;48.112;11.662;2023-02-28T01:25:36;95859.41;;;1.69
34310;BMP280;61664;48.112;11.662;2023-02-28T01:28:04;95853.03;;;1.63
34310;BMP280;61664;48.112;11.662;2023-02-28T01:30:32;95850.41;;;1.63
34310;BMP280;61664;48.112;11.662;2023-02-28T01:32:59;95856.03;;;1.68
34310;BMP280;61664;48.112;11.662;2023-02-28T01:35:26;95841.38;;;1.57
34310;BMP280;61664;48.112;11.662;2023-02-28T01:37:53;95841.75;;;1.59
34310;BMP280;61664;48.112;11.662;2023-02-28T01:40:20;95849.28;;;1.64
34310;BMP280;61664;48.112;11.662;2023-02-28T01:42:48;95850.41;;;1.63
34310;BMP280;61664;48.112;11.662;2023-02-28T01:45:30;95842.91;;;1.61
34310;BMP280;61664;48.112;11.662;2023-02-28T01:48:05;95839.13;;;1.59
34310;BMP280;61664;48.112;11.662;2023-02-28T01:50:41;95833.50;;;1.57
34310;BMP280;61664;48.112;11.662;2023-02-28T01:53:18;95827.88;;;1.51
34310;BMP280;61664;48.112;11.662;2023-02-28T01:55:51;95831.63;;;1.46
34310;BMP280;61664;48.112;11.662;2023-02-28T01:58:19;95846.66;;;1.57
34310;BMP280;61664;48.112;11.662;2023-02-28T02:00:46;95831.63;;;1.46
34310;BMP280;61664;48.112;11.662;2023-02-28T02:03:18;95835.03;;;1.51
34310;BMP280;61664;48.112;11.662;2023-02-28T02:05:46;95837.66;;;1.51
34310;BMP280;61664;48.112;11.662;2023-02-28T02:08:23;95827.13;;;1.51
34310;BMP280;61664;48.112;11.662;2023-02-28T02:10:57;95826.38;;;1.43
34310;BMP280;61664;48.112;11.662;2023-02-28T02:28:38;95829.41;;;1.34
34310;BMP280;61664;48.112;11.662;2023-02-28T02:31:33;95833.22;;;1.33
34310;BMP280;61664;48.112;11.662;2023-02-28T02:40:33;95819.69;;;1.24
34310;BMP280;61664;48.112;11.662;2023-02-28T02:44:11;95824.94;;;1.24
34310;BMP280;61664;48.112;11.662;2023-02-28T02:46:24;95821.19;;;1.22
34310;BMP280;61664;48.112;11.662;2023-02-28T02:48:56;95808.78;;;1.15
34310;BMP280;61664;48.112;11.662;2023-02-28T02:51:26;95820.44;;;1.21
34310;BMP280;61664;48.112;11.662;2023-02-28T02:56:47;95827.19;;;1.19
34310;BMP280;61664;48.112;11.662;2023-02-28T02:59:20;95816.69;;;1.15
34310;BMP280;61664;48.112;11.662;2023-02-28T03:02:11;95811.78;;;1.10
34310;BMP280;61664;48.112;11.662;2023-02-28T03:04:51;95811.44;;;1.11
34310;BMP280;61664;48.112;11.662;2023-02-28T03:07:18;95802.78;;;1.11
34310;BMP280;61664;48.112;11.662;2023-02-28T03:09:53;95801.28;;;1.10
34310;BMP280;61664;48.112;11.662;2023-02-28T03:12:40;95815.19;;;1.14
34310;BMP280;61664;48.112;11.662;2023-02-28T03:15:17;95806.56;;;1.06
34310;BMP280;61664;48.112;11.662;2023-02-28T03:17:59;95816.69;;;1.11
34310;BMP280;61664;48.112;11.662;2023-02-28T03:20:42;95805.44;;;1.04
34310;BMP280;61664;48.112;11.662;2023-02-28T03:23:17;95817.44;;;1.08
34310;BMP280;61664;48.112;11.662;2023-02-28T03:26:07;95818.19;;;1.05
34310;BMP280;61664;48.112;11.662;2023-02-28T03:29:15;95812.94;;;0.98
34310;BMP280;61664;48.112;11.662;2023-02-28T03:31:53;95822.72;;;0.98
34310;BMP280;61664;48.112;11.662;2023-02-28T03:34:29;95827.25;;;1.01
34310;BMP280;61664;48.112;11.662;2023-02-28T03:37:08;95814.44;;;0.96
34310;BMP280;61664;48.112;11.662;2023-02-28T03:39:46;95814.84;;;0.91
34310;BMP280;61664;48.112;11.662;2023-02-28T03:42:22;95806.19;;;0.83
34310;BMP280;61664;48.112;11.662;2023-02-28T03:44:57;95821.22;;;0.90
34310;BMP280;61664;48.112;11.662;2023-02-28T03:50:29;95812.97;;;0.80
34310;BMP280;61664;48.112;11.662;2023-02-28T03:53:15;95825.34;;;0.80
34310;BMP280;61664;48.112;11.662;2023-02-28T03:55:49;95825.00;;;0.81
34310;BMP280;61664;48.112;11.662;2023-02-28T03:58:47;95831.00;;;0.78
34310;BMP280;61664;48.112;11.662;2023-02-28T04:01:36;95837.38;;;0.77
34310;BMP280;61664;48.112;11.662;2023-02-28T04:04:04;95830.25;;;0.74
34310;BMP280;61664;48.112;11.662;2023-02-28T04:06:33;95822.34;;;0.67
34310;BMP280;61664;48.112;11.662;2023-02-28T04:09:03;95840.03;;;0.70
34310;BMP280;61664;48.112;11.662;2023-02-28T04:11:38;95836.63;;;0.63
34310;BMP280;61664;48.112;11.662;2023-02-28T04:14:07;95836.25;;;0.57
34310;BMP280;61664;48.112;11.662;2023-02-28T04:16:39;95849.03;;;0.62
34310;BMP280;61664;48.112;11.662;2023-02-28T04:19:09;95857.28;;;0.64
34310;BMP280;61664;48.112;11.662;2023-02-28T04:21:42;95850.53;;;0.63
34310;BMP280;61664;48.112;11.662;2023-02-28T04:24:13;95841.50;;;0.57
34310;BMP280;61664;48.112;11.662;2023-02-28T04:26:46;95853.53;;;0.62
34310;BMP280;61664;48.112;11.662;2023-02-28T04:29:23;95849.78;;;0.63
34310;BMP280;61664;48.112;11.662;2023-02-28T04:31:50;95855.03;;;0.66
34310;BMP280;61664;48.112;11.662;2023-02-28T04:34:20;95853.91;;;0.67
34310;BMP280;61664;48.112;11.662;2023-02-28T04:36:48;95855.78;;;0.77
34310;BMP280;61664;48.112;11.662;2023-02-28T04:39:38;95865.19;;;0.85
34310;BMP280;61664;48.112;11.662;2023-02-28T04:42:06;95860.31;;;0.84
34310;BMP280;61664;48.112;11.662;2023-02-28T04:44:33;95847.91;;;0.84
34310;BMP280;61664;48.112;11.662;2023-02-28T04:47:00;95856.94;;;0.94
34310;BMP280;61664;48.112;11.662;2023-02-28T04:49:27;95844.53;;;0.95
34310;BMP280;61664;48.112;11.662;2023-02-28T04:51:54;95855.44;;;1.00
34310;BMP280;61664;48.112;11.662;2023-02-28T04:54:21;95855.78;;;1.09
34310;BMP280;61664;48.112;11.662;2023-02-28T04:56:47;95840.78;;;1.03
34310;BMP280;61664;48.112;11.662;2023-02-28T04:59:17;95858.06;;;1.11
34310;BMP280;61664;48.112;11.662;2023-02-28T05:01:48;95861.44;;;1.15
34310;BMP280;61664;48.112;11.662;2023-02-28T05:04:16;95859.56;;;1.12
34310;BMP280;61664;48.112;11.662;2023-02-28T05:06:43;95869.69;;;1.17
34310;BMP280;61664;48.112;11.662;2023-02-28T05:09:10;95870.44;;;1.17
34310;BMP280;61664;48.112;11.662;2023-02-28T05:11:41;95871.59;;;1.24
34310;BMP280;61664;48.112;11.662;2023-02-28T05:14:13;95876.84;;;1.27
34310;BMP280;61664;48.112;11.662;2023-02-28T05:16:41;95879.84;;;1.29
34310;BMP280;61664;48.112;11.662;2023-02-28T05:19:08;95873.06;;;1.28
34310;BMP280;61664;48.112;11.662;2023-02-28T05:21:39;95868.56;;;1.32
34310;BMP280;61664;48.112;11.662;2023-02-28T05:24:10;95867.00;;;1.38
34310;BMP280;61664;48.112;11.662;2023-02-28T05:26:41;95883.16;;;1.55
34310;BMP280;61664;48.112;11.662;2023-02-28T05:29:09;95866.59;;;1.54
34310;BMP280;61664;48.112;11.662;2023-02-28T05:31:37;95877.47;;;1.67
34310;BMP280;61664;48.112;11.662;2023-02-28T05:34:04;95872.22;;;1.70
34310;BMP280;61664;48.112;11.662;2023-02-28T05:36:32;95895.50;;;1.83
34310;BMP280;61664;48.112;11.662;2023-02-28T05:38:59;95875.56;;;1.78
34310;BMP280;61664;48.112;11.662;2023-02-28T05:41:26;95874.44;;;1.79
34310;BMP280;61664;48.112;11.662;2023-02-28T05:43:54;95880.44;;;1.87
34310;BMP280;61664;48.112;11.662;2023-02-28T05:46:21;95869.16;;;1.86
34310;BMP280;61664;48.112;11.662;2023-02-28T05:48:48;95883.00;;;2.01
34310;BMP280;61664;48.112;11.662;2023-02-28T05:51:16;95859.31;;;1.90
34310;BMP280;61664;48.112;11.662;2023-02-28T05:53:44;95876.59;;;1.98
34310;BMP280;61664;48.112;11.662;2023-02-28T05:56:11;95891.63;;;2.09
34310;BMP280;61664;48.112;11.662;2023-02-28T05:58:38;95886.34;;;2.09
34310;BMP280;61664;48.112;11.662;2023-02-28T06:04:02;95901.38;;;2.19
34310;BMP280;61664;48.112;11.662;2023-02-28T06:06:29;95903.63;;;2.20
34310;BMP280;61664;48.112;11.662;2023-02-28T06:08:57;95898.00;;;2.22
34310;BMP280;61664;48.112;11.662;2023-02-28T06:11:24;95902.13;;;2.23
34310;BMP280;61664;48.112;11.662;2023-02-28T06:13:59;95891.97;;;2.21
34310;BMP280;61664;48.112;11.662;2023-02-28T06:16:29;95908.13;;;2.27
34310;BMP280;61664;48.112;11.662;2023-02-28T06:19:03;95908.91;;;2.24
34310;BMP280;61664;48.112;11.662;2023-02-28T06:21:30;95915.63;;;2.28
34310;BMP280;61664;48.112;11.662;2023-02-28T06:23:58;95907.72;;;2.28
34310;BMP280;61664;48.112;11.662;2023-02-28T06:26:26;95912.97;;;2.32
34310;BMP280;61664;48.112;11.662;2023-02-28T06:28:53;95920.47;;;2.37
34310;BMP280;61664;48.112;11.662;2023-02-28T06:31:22;95919.69;;;2.40
34310;BMP280;61664;48.112;11.662;2023-02-28T06:33:50;95912.94;;;2.39
34310;BMP280;61664;48.112;11.662;2023-02-28T06:36:17;95909.53;;;2.42
34310;BMP280;61664;48.112;11.662;2023-02-28T06:38:45;95924.56;;;2.52
34310;BMP280;61664;48.112;11.662;2023-02-28T06:41:11;95926.06;;;2.53
34310;BMP280;61664;48.112;11.662;2023-02-28T06:43:42;95931.34;;;2.53
34310;BMP280;61664;48.112;11.662;2023-02-28T06:46:13;95936.63;;;2.53
34310;BMP280;61664;48.112;11.662;2023-02-28T06:48:43;95925.69;;;2.51
34310;BMP280;61664;48.112;11.662;2023-02-28T06:51:18;95930.19;;;2.54
34310;BMP280;61664;48.112;11.662;2023-02-28T06:53:46;95944.09;;;2.58
34310;BMP280;61664;48.112;11.662;2023-02-28T06:56:15;95939.59;;;2.62
34310;BMP280;61664;48.112;11.662;2023-02-28T06:58:47;95932.81;;;2.61
34310;BMP280;61664;48.112;11.662;2023-02-28T07:01:16;95938.84;;;2.62
34310;BMP280;61664;48.112;11.662;2023-02-28T07:03:43;95936.19;;;2.58
34310;BMP280;61664;48.112;11.662;2023-02-28T07:06:10;95943.66;;;2.67
34310;BMP280;61664;48.112;11.662;2023-02-28T07:08:37;95942.56;;;2.64
34310;BMP280;61664;48.112;11.662;2023-02-28T07:11:04;95946.66;;;2.73
34310;BMP280;61664;48.112;11.662;2023-02-28T07:13:32;95952.69;;;2.70
34310;BMP280;61664;48.112;11.662;2023-02-28T07:16:03;95959.06;;;2.76
34310;BMP280;61664;48.112;11.662;2023-02-28T07:18:31;95953.81;;;2.76
34310;BMP280;61664;48.112;11.662;2023-02-28T07:21:07;95948.81;;;2.88
34310;BMP280;61664;48.112;11.662;2023-02-28T07:23:36;95951.44;;;2.92
34310;BMP280;61664;48.112;11.662;2023-02-28T07:26:06;95961.16;;;3.02
34310;BMP280;61664;48.112;11.662;2023-02-28T07:28:33;95949.81;;;3.05
34310;BMP280;61664;48.112;11.662;2023-02-28T07:31:05;95961.84;;;3.13
34310;BMP280;61664;48.112;11.662;2023-02-28T07:33:33;95948.25;;;3.15
34310;BMP280;61664;48.112;11.662;2023-02-28T07:36:10;95958.41;;;3.16
34310;BMP280;61664;48.112;11.662;2023-02-28T07:38:44;95950.88;;;3.15
34310;BMP280;61664;48.112;11.662;2023-02-28T07:41:19;95953.50;;;3.18
34310;BMP280;61664;48.112;11.662;2023-02-28T07:43:47;95945.97;;;3.17
34310;BMP280;61664;48.112;11.662;2023-02-28T07:46:16;95949.34;;;3.17
34310;BMP280;61664;48.112;11.662;2023-02-28T07:48:44;95957.63;;;3.23
34310;BMP280;61664;48.112;11.662;2023-02-28T07:51:11;95953.50;;;3.18
34310;BMP280;61664;48.112;11.662;2023-02-28T07:53:38;95954.91;;;3.27
34310;BMP280;61664;48.112;11.662;2023-02-28T07:56:06;95950.44;;;3.23
34310;BMP280;61664;48.112;11.662;2023-02-28T07:58:33;95960.25;;;3.23
34310;BMP280;61664;48.112;11.662;2023-02-28T08:01:09;95962.47;;;3.24
34310;BMP280;61664;48.112;11.662;2023-02-28T08:03:37;95955.66;;;3.27
34310;BMP280;61664;48.112;11.662;2023-02-28T08:06:07;95950.78;;;3.25
34310;BMP280;61664;48.112;11.662;2023-02-28T08:08:34;95972.56;;;3.37
34310;BMP280;61664;48.112;11.662;2023-02-28T08:11:02;95975.97;;;3.37
34310;BMP280;61664;48.112;11.662;2023-02-28T08:13:30;95974.47;;;3.36
34310;BMP280;61664;48.112;11.662;2023-02-28T08:15:58;95971.50;;;3.31
34310;BMP280;61664;48.112;11.662;2023-02-28T08:18:25;95979.03;;;3.32
34310;BMP280;61664;48.112;11.662;2023-02-28T08:20:52;95974.16;;;3.31
34310;BMP280;61664;48.112;11.662;2023-02-28T08:23:19;95974.06;;;3.38
34310;BMP280;61664;48.112;11.662;2023-02-28T08:25:56;95979.72;;;3.43
34310;BMP280;61664;48.112;11.662;2023-02-28T08:28:23;95986.50;;;3.44
34310;BMP280;61664;48.112;11.662;2023-02-28T08:30:53;95989.50;;;3.46
34310;BMP280;61664;48.112;11.662;2023-02-28T08:33:21;95983.44;;;3.46
34310;BMP280;61664;48.112;11.662;2023-02-28T08:35:53;95982.25;;;3.50
34310;BMP280;61664;48.112;11.662;2023-02-28T08:38:21;95984.94;;;3.47
34310;BMP280;61664;48.112;11.662;2023-02-28T08:40:49;95986.03;;;3.53
34310;BMP280;61664;48.112;11.662;2023-02-28T08:43:16;95986.75;;;3.53
34310;BMP280;61664;48.112;11.662;2023-02-28T08:45:43;95995.41;;;3.58
34310;BMP280;61664;48.112;11.662;2023-02-28T08:48:10;95982.53;;;3.63
34310;BMP280;61664;48.112;11.662;2023-02-28T08:50:37;95993.06;;;3.67
34310;BMP280;61664;48.112;11.662;2023-02-28T08:53:05;96004.25;;;3.78
34310;BMP280;61664;48.112;11.662;2023-02-28T08:55:32;95986.50;;;3.78
34310;BMP280;61664;48.112;11.662;2023-02-28T08:57:59;95992.84;;;3.92
34310;BMP280;61664;48.112;11.662;2023-02-28T09:00:28;96003.28;;;4.02
34310;BMP280;61664;48.112;11.662;2023-02-28T09:02:58;96006.63;;;4.06
34310;BMP280;61664;48.112;11.662;2023-02-28T09:05:24;95999.78;;;4.12
34310;BMP280;61664;48.112;11.662;2023-02-28T09:07:51;95991.78;;;4.16
34310;BMP280;61664;48.112;11.662;2023-02-28T09:10:18;95999.28;;;4.21
34310;BMP280;61664;48.112;11.662;2023-02-28T09:12:45;96009.00;;;4.31
34310;BMP280;61664;48.112;11.662;2023-02-28T09:15:13;95995.03;;;4.31
34310;BMP280;61664;48.112;11.662;2023-02-28T09:17:40;96008.88;;;4.38
34310;BMP280;61664;48.112;11.662;2023-02-28T09:20:10;96012.66;;;4.41
34310;BMP280;61664;48.112;11.662;2023-02-28T09:22:37;96004.41;;;4.35
34310;BMP280;61664;48.112;11.662;2023-02-28T09:25:04;96017.66;;;4.35
34310;BMP280;61664;48.112;11.662;2023-02-28T09:27:31;96009.00;;;4.31
34310;BMP280;61664;48.112;11.662;2023-02-28T09:29:58;96004.81;;;4.34
34310;BMP280;61664;48.112;11.662;2023-02-28T09:32:25;96021.25;;;4.49
34310;BMP280;61664;48.112;11.662;2023-02-28T09:34:52;96025.03;;;4.47
34310;BMP280;61664;48.112;11.662;2023-02-28T09:37:19;96027.63;;;4.55
34310;BMP280;61664;48.112;11.662;2023-02-28T09:39:46;96021.97;;;4.53
34310;BMP280;61664;48.112;11.662;2023-02-28T09:42:27;96036.56;;;4.64
34310;BMP280;61664;48.112;11.662;2023-02-28T09:45:05;96038.03;;;4.65
34310;BMP280;61664;48.112;11.662;2023-02-28T09:47:40;96028.69;;;4.57
34310;BMP280;61664;48.112;11.662;2023-02-28T09:52:55;96041.38;;;4.73
34310;BMP280;61664;48.112;11.662;2023-02-28T09:55:30;96045.44;;;4.77
34310;BMP280;61664;48.112;11.662;2023-02-28T10:01:18;96043.28;;;4.72
34310;BMP280;61664;48.112;11.662;2023-02-28T10:04:08;96045.31;;;4.88
34310;BMP280;61664;48.112;11.662;2023-02-28T10:06:49;96045.19;;;4.95
34310;BMP280;61664;48.112;11.662;2023-02-28T10:09:22;96048.75;;;5.12
34310;BMP280;61664;48.112;11.662;2023-02-28T10:11:54;96047.09;;;5.22
34310;BMP280;61664;48.112;11.662;2023-02-28T10:14:28;96051.38;;;5.39
34310;BMP280;61664;48.112;11.662;2023-02-28T10:17:11;96053.44;;;5.51
34310;BMP280;61664;48.112;11.662;2023-02-28T10:22:26;96045.66;;;5.64
34310;BMP280;61664;48.112;11.662;2023-02-28T10:24:58;96049.19;;;5.77
34310;BMP280;61664;48.112;11.662;2023-02-28T10:27:32;96045.69;;;5.84
34310;BMP280;61664;48.112;11.662;2023-02-28T10:30:02;96060.91;;;6.03
34310;BMP280;61664;48.112;11.662;2023-02-28T10:32:33;96049.66;;;6.15
34310;BMP280;61664;48.112;11.662;2023-02-28T10:35:14;96060.19;;;6.39
34310;BMP280;61664;48.112;11.662;2023-02-28T10:37:45;96065.75;;;6.64
34310;BMP280;61664;48.112;11.662;2023-02-28T10:42:59;96067.28;;;6.81
34310;BMP280;61664;48.112;11.662;2023-02-28T10:45:33;96055.41;;;6.86
34310;BMP280;61664;48.112;11.662;2023-02-28T10:48:23;96064.66;;;7.14
34310;BMP280;61664;48.112;11.662;2023-02-28T10:50:54;96048.19;;;7.35
34310;BMP280;61664;48.112;11.662;2023-02-28T11:01:21;96074.56;;;7.75
34310;BMP280;61664;48.112;11.662;2023-02-28T11:03:51;96072.59;;;7.63
34310;BMP280;61664;48.112;11.662;2023-02-28T11:06:30;96071.63;;;7.56
34310;BMP280;61664;48.112;11.662;2023-02-28T11:09:06;96070.69;;;7.63
34310;BMP280;61664;48.112;11.662;2023-02-28T11:11:45;96074.84;;;7.64
34310;BMP280;61664;48.112;11.662;2023-02-28T11:14:30;96069.44;;;7.68
34310;BMP280;61664;48.112;11.662;2023-02-28T11:17:24;96073.25;;;7.67
34310;BMP280;61664;48.112;11.662;2023-02-28T11:19:55;96068.03;;;7.63
34310;BMP280;61664;48.112;11.662;2023-02-28T11:22:28;96078.25;;;7.65
34310;BMP280;61664;48.112;11.662;2023-02-28T11:25:07;96070.44;;;7.57
34310;BMP280;61664;48.112;11.662;2023-02-28T11:27:52;96071.44;;;7.64
34310;BMP280;61664;48.112;11.662;2023-02-28T11:30:33;96058.31;;;7.56
34310;BMP280;61664;48.112;11.662;2023-02-28T11:34:00;96056.28;;;7.60
34310;BMP280;61664;48.112;11.662;2023-02-28T11:36:22;96072.94;;;7.65
34310;BMP280;61664;48.112;11.662;2023-02-28T11:39:07;96068.09;;;7.59
34310;BMP280;61664;48.112;11.662;2023-02-28T11:41:46;96064.28;;;7.60
34310;BMP280;61664;48.112;11.662;2023-02-28T11:44:54;96049.75;;;7.65
34310;BMP280;61664;48.112;11.662;2023-02-28T11:47:44;96054.31;;;7.94
34310;BMP280;61664;48.112;11.662;2023-02-28T11:51:00;96048.75;;;8.30
34310;BMP280;61664;48.112;11.662;2023-02-28T11:56:50;96034.09;;;8.88
34310;BMP280;61664;48.112;11.662;2023-02-28T12:10:26;96027.09;;;9.85
34310;BMP280;61664;48.112;11.662;2023-02-28T12:13:18;96023.72;;;9.94
34310;BMP280;61664;48.112;11.662;2023-02-28T12:19:13;96024.22;;;10.02
34310;BMP280;61664;48.112;11.662;2023-02-28T12:27:40;96021.72;;;10.07
34310;BMP280;61664;48.112;11.662;2023-02-28T12:30:34;96023.53;;;9.88
34310;BMP280;61664;48.112;11.662;2023-02-28T12:33:12;96025.44;;;9.88
34310;BMP280;61664;48.112;11.662;2023-02-28T12:35:59;96017.50;;;9.97
34310;BMP280;61664;48.112;11.662;2023-02-28T12:38:49;96018.19;;;10.10
34310;BMP280;61664;48.112;11.662;2023-02-28T12:41:26;96022.59;;;10.04
34310;BMP280;61664;48.112;11.662;2023-02-28T12:44:17;96005.75;;;9.85
34310;BMP280;61664;48.112;11.662;2023-02-28T12:46:51;96020.00;;;9.92
34310;BMP280;61664;48.112;11.662;2023-02-28T12:49:31;96010.56;;;9.78
34310;BMP280;61664;48.112;11.662;2023-02-28T12:52:01;95992.88;;;9.49
34310;BMP280;61664;48.112;11.662;2023-02-28T12:54:44;96000.22;;;9.24
34310;BMP280;61664;48.112;11.662;2023-02-28T12:57:29;96002.94;;;9.11
34310;BMP280;61664;48.112;11.662;2023-02-28T13:00:13;95992.88;;;9.15
34310;BMP280;61664;48.112;11.662;2023-02-28T13:06:28;95992.13;;;9.49
34310;BMP280;61664;48.112;11.662;2023-02-28T13:11:41;95999.44;;;9.36
34310;BMP280;61664;48.112;11.662;2023-02-28T13:14:38;95994.13;;;9.23
34310;BMP280;61664;48.112;11.662;2023-02-28T13:22:35;96003.53;;;9.15
34310;BMP280;61664;48.112;11.662;2023-02-28T13:27:52;96002.69;;;9.18
34310;BMP280;61664;48.112;11.662;2023-02-28T13:44:17;96001.75;;;9.46
34310;BMP280;61664;48.112;11.662;2023-02-28T13:49:27;96007.75;;;9.60
34310;BMP280;61664;48.112;11.662;2023-02-28T14:05:35;96004.72;;;9.48
34310;BMP280;61664;48.112;11.662;2023-02-28T14:08:20;95994.22;;;9.32
34310;BMP280;61664;48.112;11.662;2023-02-28T14:11:04;95979.88;;;9.17
34310;BMP280;61664;48.112;11.662;2023-02-28T14:13:45;95997.63;;;9.33
34310;BMP280;61664;48.112;11.662;2023-02-28T14:16:42;96003.91;;;9.39
34310;BMP280;61664;48.112;11.662;2023-02-28T14:19:26;95995.28;;;9.35
34310;BMP280;61664;48.112;11.662;2023-02-28T14:28:27;95993.41;;;9.23
34310;BMP280;61664;48.112;11.662;2023-02-28T14:31:13;95988.13;;;8.97
34310;BMP280;61664;48.112;11.662;2023-02-28T14:34:12;95997.63;;;8.85
34310;BMP280;61664;48.112;11.662;2023-02-28T14:36:44;96004.59;;;8.83
34310;BMP280;61664;48.112;11.662;2023-02-28T14:39:26;95990.81;;;8.84
34310;BMP280;61664;48.112;11.662;2023-02-28T14:41:54;95996.44;;;8.99
34310;BMP280;61664;48.112;11.662;2023-02-28T14:44:26;96000.28;;;9.11
34310;BMP280;61664;48.112;11.662;2023-02-28T14:46:59;95998.13;;;9.06
34310;BMP280;61664;48.112;11.662;2023-02-28T14:49:37;95998.78;;;8.97
34310;BMP280;61664;48.112;11.662;2023-02-28T14:52:15;95999.75;;;8.91
34310;BMP280;61664;48.112;11.662;2023-02-28T14:54:44;96008.84;;;8.93
34310;BMP280;61664;48.112;11.662;2023-02-28T14:57:23;96005.19;;;9.00
34310;BMP280;61664;48.112;11.662;2023-02-28T15:00:02;95993.84;;;9.08
34310;BMP280;61664;48.112;11.662;2023-02-28T15:02:35;95992.56;;;9.13
34310;BMP280;61664;48.112;11.662;2023-02-28T15:07:47;96000.09;;;9.27
34310;BMP280;61664;48.112;11.662;2023-02-28T15:10:20;95974.56;;;9.39
34310;BMP280;61664;48.112;11.662;2023-02-28T15:13:12;95990.28;;;10.02
34310;BMP280;61664;48.112;11.662;2023-02-28T15:15:57;95980.38;;;10.70
34310;BMP280;61664;48.112;11.662;2023-02-28T15:18:49;95996.66;;;11.49
34310;BMP280;61664;48.112;11.662;2023-02-28T15:21:34;95996.06;;;12.14
34310;BMP280;61664;48.112;11.662;2023-02-28T15:24:12;95994.69;;;12.61
34310;BMP280;61664;48.112;11.662;2023-02-28T15:26:52;95985.63;;;12.82
34310;BMP280;61664;48.112;11.662;2023-02-28T15:29:23;95994.38;;;13.07
34310;BMP280;61664;48.112;11.662;2023-02-28T15:32:06;95997.56;;;13.20
34310;BMP280;61664;48.112;11.662;2023-02-28T15:34:42;96004.50;;;13.26
34310;BMP280;61664;48.112;11.662;2023-02-28T15:37:40;95999.59;;;13.25
34310;BMP280;61664;48.112;11.662;2023-02-28T15:43:06;96015.69;;;12.86
34310;BMP280;61664;48.112;11.662;2023-02-28T15:45:59;95986.16;;;12.39
34310;BMP280;61664;48.112;11.662;2023-02-28T15:48:30;96006.72;;;12.42
34310;BMP280;61664;48.112;11.662;2023-02-28T15:51:16;96010.28;;;12.30
34310;BMP280;61664;48.112;11.662;2023-02-28T15:53:56;96008.72;;;12.23
34310;BMP280;61664;48.112;11.662;2023-02-28T15:56:35;96012.88;;;12.15
34310;BMP280;61664;48.112;11.662;2023-02-28T15:59:07;96009.66;;;12.11
34310;BMP280;61664;48.112;11.662;2023-02-28T16:01:39;96002.25;;;11.97
34310;BMP280;61664;48.112;11.662;2023-02-28T16:04:15;96002.44;;;11.66
34310;BMP280;61664;48.112;11.662;2023-02-28T16:07:00;96010.03;;;11.31
34310;BMP280;61664;48.112;11.662;2023-02-28T16:09:28;96002.13;;;10.91
34310;BMP280;61664;48.112;11.662;2023-02-28T16:12:02;96013.63;;;10.60
34310;BMP280;61664;48.112;11.662;2023-02-28T16:14:30;96020.47;;;10.30
34310;BMP280;61664;48.112;11.662;2023-02-28T16:17:07;96005.78;;;9.95
34310;BMP280;61664;48.112;11.662;2023-02-28T16:19:39;96006.97;;;9.72
34310;BMP280;61664;48.112;11.662;2023-02-28T16:22:09;95998.13;;;9.40
34310;BMP280;61664;48.112;11.662;2023-02-28T16:24:36;96010.75;;;9.27
34310;BMP280;61664;48.112;11.662;2023-02-28T16:27:03;96015.44;;;9.01
34310;BMP280;61664;48.112;11.662;2023-02-28T16:29:35;96016.72;;;8.84
34310;BMP280;61664;48.112;11.662;2023-02-28T16:32:05;96021.09;;;8.65
34310;BMP280;61664;48.112;11.662;2023-02-28T16:34:32;96006.59;;;8.41
34310;BMP280;61664;48.112;11.662;2023-02-28T16:36:59;96017.34;;;8.24
34310;BMP280;61664;48.112;11.662;2023-02-28T16:39:26;96006.44;;;8.06
34310;BMP280;61664;48.112;11.662;2023-02-28T16:41:53;96015.69;;;8.02
34310;BMP280;61664;48.112;11.662;2023-02-28T16:44:31;96018.75;;;7.87
34310;BMP280;61664;48.112;11.662;2023-02-28T16:47:03;96030.66;;;7.83
34310;BMP280;61664;48.112;11.662;2023-02-28T16:49:31;96028.34;;;7.69
34310;BMP280;61664;48.112;11.662;2023-02-28T16:51:57;96016.06;;;7.58
34310;BMP280;61664;48.112;11.662;2023-02-28T16:54:24;96031.22;;;7.62